Whitehall, United Kingdom
Current Conditions -  °F | °C
As of 8:50 AM on Thursday 27 Nov 2014 (Local Time) from EGVO Reporting Station
Haze Haze  
Wind Chill: 41°   Ceiling: 300
Heat Index: 45°   Visibility: 4mi
Dew Point: 45°   Wind: 6mph
Humidity: 100%   Direction: 190°S
Pressure: 29.62"   Gusts: NA
Location:  51.12°N, 0.88°W
Report Text: EGVO 270850Z 19005KT 6000 4000N BR FEW001 BKN003 07/07 Q1003 YLO2 BECMG 6000 BKN005 YLO1
Loading
Personal Weather Stations






























Interactive Weather Map New forecast layout! Learn more

10-Day Weather Forecast

Advertisements
Track Severe Weather on mobile